Time,TemperatureF,DewpointF,PressureIn,WindDirection,WindDirectionDegrees,WindSpeedMPH,WindSpeedGustMPH,Humidity,HourlyPrecipIn,Conditions,Clouds,dailyrainin,SoftwareType,DateUTC
2013-08-04 00:02:00,57.0,53.0,-100.00,NNE,12,1.0,5.0,86,0.00,,,0.00,,2013-08-04 05:02:00,
2013-08-04 00:12:00,57.0,53.0,-100.00,NNE,12,1.0,5.0,86,0.00,,,0.00,,2013-08-04 05:12:00,
2013-08-04 00:22:00,57.0,53.0,-100.00,NNE,12,1.0,5.0,86,0.00,,,0.00,,2013-08-04 05:22:00,
2013-08-04 00:52:00,59.0,53.0,-100.00,North,3,7.0,11.0,80,0.00,,,0.00,,2013-08-04 05:52:00,
2013-08-04 01:02:00,59.0,53.0,-100.00,North,3,7.0,11.0,80,0.00,,,0.00,,2013-08-04 06:02:00,
2013-08-04 01:12:00,59.0,53.0,-100.00,North,3,7.0,11.0,80,0.00,,,0.00,,2013-08-04 06:12:00,
2013-08-04 01:22:00,59.0,53.0,-100.00,North,3,7.0,11.0,80,0.00,,,0.00,,2013-08-04 06:22:00,
2013-08-04 01:52:00,59.0,53.0,-100.00,NE,48,7.0,12.0,80,0.00,,,0.00,,2013-08-04 06:52:00,
2013-08-04 02:02:00,59.0,53.0,-100.00,NE,48,7.0,12.0,80,0.00,,,0.00,,2013-08-04 07:02:00,
2013-08-04 02:12:00,59.0,53.0,-100.00,NE,48,7.0,12.0,80,0.00,,,0.00,,2013-08-04 07:12:00,
2013-08-04 02:22:00,59.0,53.0,-100.00,NE,48,7.0,12.0,80,0.00,,,0.00,,2013-08-04 07:22:00,
2013-08-04 02:53:00,57.0,54.0,-100.00,NW,312,2.0,12.0,90,0.00,,,0.00,,2013-08-04 07:53:00,
2013-08-04 03:02:00,57.0,54.0,-100.00,NW,312,2.0,12.0,90,0.00,,,0.00,,2013-08-04 08:02:00,
2013-08-04 03:12:00,57.0,54.0,-100.00,NW,312,2.0,12.0,90,0.00,,,0.00,,2013-08-04 08:12:00,
2013-08-04 03:22:00,57.0,54.0,-100.00,NW,312,2.0,12.0,90,0.00,,,0.00,,2013-08-04 08:22:00,
2013-08-04 03:53:00,55.0,54.0,-100.00,NNW,345,2.0,6.0,95,0.00,,,0.00,,2013-08-04 08:53:00,
2013-08-04 04:02:00,55.0,54.0,-100.00,NNW,345,2.0,6.0,95,0.00,,,0.00,,2013-08-04 09:02:00,
2013-08-04 04:12:00,55.0,54.0,-100.00,NNW,345,2.0,6.0,95,0.00,,,0.00,,2013-08-04 09:12:00,
2013-08-04 04:22:00,55.0,54.0,-100.00,NNW,345,2.0,6.0,95,0.00,,,0.00,,2013-08-04 09:22:00,
2013-08-04 04:52:00,54.0,53.0,-100.00,NNW,333,1.0,5.0,96,0.00,,,0.00,,2013-08-04 09:52:00,
2013-08-04 05:02:00,54.0,53.0,-100.00,NNW,333,1.0,5.0,96,0.00,,,0.00,,2013-08-04 10:02:00,
2013-08-04 05:12:00,54.0,53.0,-100.00,NNW,333,1.0,5.0,96,0.00,,,0.00,,2013-08-04 10:12:00,
2013-08-04 05:22:00,54.0,53.0,-100.00,NNW,333,1.0,5.0,96,0.00,,,0.00,,2013-08-04 10:22:00,
2013-08-04 05:53:00,53.0,52.0,-100.00,NNW,327,3.0,8.0,98,0.00,,,0.00,,2013-08-04 10:53:00,
2013-08-04 06:02:00,53.0,52.0,-100.00,NNW,327,3.0,8.0,98,0.00,,,0.00,,2013-08-04 11:02:00,
2013-08-04 06:12:00,53.0,52.0,-100.00,NNW,327,3.0,8.0,98,0.00,,,0.00,,2013-08-04 11:12:00,
2013-08-04 06:22:00,53.0,52.0,-100.00,NNW,327,3.0,8.0,98,0.00,,,0.00,,2013-08-04 11:22:00,
2013-08-04 06:53:00,55.0,54.0,-100.00,NE,41,4.0,7.0,98,0.00,,,0.00,,2013-08-04 11:53:00,
2013-08-04 07:02:00,55.0,54.0,-100.00,NE,41,4.0,7.0,98,0.00,,,0.00,,2013-08-04 12:02:00,
2013-08-04 07:12:00,55.0,54.0,-100.00,NE,41,4.0,7.0,98,0.00,,,0.00,,2013-08-04 12:12:00,
2013-08-04 07:22:00,55.0,54.0,-100.00,NE,41,4.0,7.0,98,0.00,,,0.00,,2013-08-04 12:22:00,
2013-08-04 07:53:00,61.0,55.0,-100.00,East,89,6.0,11.0,80,0.00,,,0.00,,2013-08-04 12:53:00,
2013-08-04 08:02:00,61.0,55.0,-100.00,East,89,6.0,11.0,80,0.00,,,0.00,,2013-08-04 13:02:00,
2013-08-04 08:12:00,61.0,55.0,-100.00,East,89,6.0,11.0,80,0.00,,,0.00,,2013-08-04 13:12:00,
2013-08-04 08:22:00,61.0,55.0,-100.00,East,89,6.0,11.0,80,0.00,,,0.00,,2013-08-04 13:22:00,
2013-08-04 08:52:00,65.0,56.0,-100.00,East,88,5.0,11.0,72,0.00,,,0.00,,2013-08-04 13:52:00,
2013-08-04 09:02:00,65.0,56.0,-100.00,East,88,5.0,11.0,72,0.00,,,0.00,,2013-08-04 14:02:00,
2013-08-04 09:12:00,65.0,56.0,-100.00,East,88,5.0,11.0,72,0.00,,,0.00,,2013-08-04 14:12:00,
2013-08-04 09:22:00,65.0,56.0,-100.00,East,88,5.0,11.0,72,0.00,,,0.00,,2013-08-04 14:22:00,
2013-08-04 09:53:00,67.0,55.0,-100.00,ENE,75,3.0,7.0,66,0.00,,,0.00,,2013-08-04 14:53:00,
2013-08-04 10:02:00,67.0,55.0,-100.00,ENE,75,3.0,7.0,66,0.00,,,0.00,,2013-08-04 15:02:00,
2013-08-04 10:12:00,67.0,55.0,-100.00,ENE,75,3.0,7.0,66,0.00,,,0.00,,2013-08-04 15:12:00,
2013-08-04 10:22:00,67.0,55.0,-100.00,ENE,75,3.0,7.0,66,0.00,,,0.00,,2013-08-04 15:22:00,
2013-08-04 10:53:00,67.0,55.0,-100.00,North,0,4.0,8.0,65,0.00,,,0.00,,2013-08-04 15:53:00,
2013-08-04 11:02:00,67.0,55.0,-100.00,North,0,4.0,8.0,65,0.00,,,0.00,,2013-08-04 16:02:00,
2013-08-04 11:12:00,67.0,55.0,-100.00,North,0,4.0,8.0,65,0.00,,,0.00,,2013-08-04 16:12:00,
2013-08-04 11:22:00,67.0,55.0,-100.00,North,0,4.0,8.0,65,0.00,,,0.00,,2013-08-04 16:22:00,
2013-08-04 11:53:00,70.0,55.0,-100.00,WNW,290,5.0,8.0,60,0.00,,,0.00,,2013-08-04 16:53:00,
2013-08-04 12:02:00,70.0,55.0,-100.00,WNW,290,5.0,8.0,60,0.00,,,0.00,,2013-08-04 17:02:00,
2013-08-04 12:12:00,70.0,55.0,-100.00,WNW,290,5.0,8.0,60,0.00,,,0.00,,2013-08-04 17:12:00,
2013-08-04 12:22:00,70.0,55.0,-100.00,WNW,290,5.0,8.0,60,0.00,,,0.00,,2013-08-04 17:22:00,
2013-08-04 12:53:00,71.0,54.0,-100.00,NW,309,6.0,10.0,56,0.00,,,0.00,,2013-08-04 17:53:00,
2013-08-04 13:02:00,71.0,54.0,-100.00,NW,309,6.0,10.0,56,0.00,,,0.00,,2013-08-04 18:02:00,
2013-08-04 13:12:00,71.0,54.0,-100.00,NW,309,6.0,10.0,56,0.00,,,0.00,,2013-08-04 18:12:00,
2013-08-04 13:23:00,71.0,54.0,-100.00,NW,309,6.0,10.0,56,0.00,,,0.00,,2013-08-04 18:23:00,
2013-08-04 13:52:00,72.0,53.0,-100.00,NNW,341,5.0,8.0,52,0.00,,,0.00,,2013-08-04 18:52:00,
2013-08-04 14:02:00,72.0,53.0,-100.00,NNW,341,5.0,8.0,52,0.00,,,0.00,,2013-08-04 19:02:00,
2013-08-04 14:12:00,72.0,53.0,-100.00,NNW,341,5.0,8.0,52,0.00,,,0.00,,2013-08-04 19:12:00,
2013-08-04 14:22:00,72.0,53.0,-100.00,NNW,341,5.0,8.0,52,0.00,,,0.00,,2013-08-04 19:22:00,
2013-08-04 14:53:00,74.0,55.0,-100.00,North,360,4.0,8.0,51,0.00,,,0.00,,2013-08-04 19:53:00,
2013-08-04 15:02:00,74.0,55.0,-100.00,North,360,4.0,8.0,51,0.00,,,0.00,,2013-08-04 20:02:00,
2013-08-04 15:12:00,74.0,55.0,-100.00,North,360,4.0,8.0,51,0.00,,,0.00,,2013-08-04 20:12:00,
2013-08-04 15:22:00,74.0,55.0,-100.00,North,360,4.0,8.0,51,0.00,,,0.00,,2013-08-04 20:22:00,
2013-08-04 15:53:00,73.0,53.0,-100.00,NNW,346,4.0,11.0,50,0.00,,,0.00,,2013-08-04 20:53:00,
2013-08-04 16:02:00,73.0,53.0,-100.00,NNW,346,4.0,11.0,50,0.00,,,0.00,,2013-08-04 21:02:00,
2013-08-04 16:12:00,73.0,53.0,-100.00,NNW,346,4.0,11.0,50,0.00,,,0.00,,2013-08-04 21:12:00,
2013-08-04 16:22:00,73.0,53.0,-100.00,NNW,346,4.0,11.0,50,0.00,,,0.00,,2013-08-04 21:22:00,
2013-08-04 16:53:00,74.0,51.0,-100.00,WNW,282,1.0,8.0,44,0.00,,,0.00,,2013-08-04 21:53:00,
2013-08-04 17:02:00,74.0,51.0,-100.00,WNW,282,1.0,8.0,44,0.00,,,0.00,,2013-08-04 22:02:00,
2013-08-04 17:12:00,74.0,51.0,-100.00,WNW,282,1.0,8.0,44,0.00,,,0.00,,2013-08-04 22:12:00,
2013-08-04 17:22:00,74.0,51.0,-100.00,WNW,282,1.0,8.0,44,0.00,,,0.00,,2013-08-04 22:22:00,
2013-08-04 17:53:00,71.0,53.0,-100.00,NE,54,6.0,10.0,53,0.00,,,0.00,,2013-08-04 22:53:00,
2013-08-04 18:02:00,71.0,53.0,-100.00,NE,54,6.0,10.0,53,0.00,,,0.00,,2013-08-04 23:02:00,
2013-08-04 18:12:00,71.0,53.0,-100.00,NE,54,6.0,10.0,53,0.00,,,0.00,,2013-08-04 23:12:00,
2013-08-04 18:22:00,71.0,53.0,-100.00,NE,54,6.0,10.0,53,0.00,,,0.00,,2013-08-04 23:22:00,
2013-08-04 18:53:00,68.0,54.0,-100.00,East,89,3.0,9.0,60,0.00,,,0.00,,2013-08-04 23:53:00,
2013-08-04 19:02:00,68.0,54.0,-100.00,East,89,3.0,9.0,60,0.00,,,0.00,,2013-08-05 00:02:00,
2013-08-04 19:12:00,68.0,54.0,-100.00,East,89,3.0,9.0,60,0.00,,,0.00,,2013-08-05 00:12:00,
2013-08-04 19:22:00,68.0,54.0,-100.00,East,89,3.0,9.0,60,0.00,,,0.00,,2013-08-05 00:22:00,
2013-08-04 19:53:00,65.0,58.0,-100.00,SE,133,6.0,11.0,78,0.00,,,0.00,,2013-08-05 00:53:00,
2013-08-04 20:02:00,65.0,58.0,-100.00,SE,133,6.0,11.0,78,0.00,,,0.00,,2013-08-05 01:02:00,
2013-08-04 20:12:00,65.0,58.0,-100.00,SE,133,6.0,11.0,78,0.00,,,0.00,,2013-08-05 01:12:00,
2013-08-04 20:22:00,65.0,58.0,-100.00,SE,133,6.0,11.0,78,0.00,,,0.00,,2013-08-05 01:22:00,
2013-08-04 20:52:00,62.0,56.0,-100.00,SE,134,9.0,14.0,82,0.00,,,0.00,,2013-08-05 01:52:00,
2013-08-04 21:02:00,62.0,56.0,-100.00,SE,134,9.0,14.0,82,0.00,,,0.00,,2013-08-05 02:02:00,
2013-08-04 21:12:00,62.0,56.0,-100.00,SE,134,9.0,14.0,82,0.00,,,0.00,,2013-08-05 02:12:00,
2013-08-04 21:22:00,62.0,56.0,-100.00,SE,134,9.0,14.0,82,0.00,,,0.00,,2013-08-05 02:22:00,
2013-08-04 21:53:00,60.0,56.0,-100.00,SE,130,6.0,15.0,86,0.00,,,0.00,,2013-08-05 02:53:00,
2013-08-04 22:02:00,60.0,56.0,-100.00,SE,130,6.0,15.0,86,0.00,,,0.00,,2013-08-05 03:02:00,
2013-08-04 22:12:00,60.0,56.0,-100.00,SE,130,6.0,15.0,86,0.00,,,0.00,,2013-08-05 03:12:00,
2013-08-04 22:22:00,60.0,56.0,-100.00,SE,130,6.0,15.0,86,0.00,,,0.00,,2013-08-05 03:22:00,
2013-08-04 22:52:00,58.0,55.0,-100.00,SE,133,8.0,18.0,89,0.00,,,0.00,,2013-08-05 03:52:00,
2013-08-04 23:02:00,58.0,55.0,-100.00,SE,133,8.0,18.0,89,0.00,,,0.00,,2013-08-05 04:02:00,
2013-08-04 23:12:00,58.0,55.0,-100.00,SE,133,8.0,18.0,89,0.00,,,0.00,,2013-08-05 04:12:00,
2013-08-04 23:22:00,58.0,55.0,-100.00,SE,133,8.0,18.0,89,0.00,,,0.00,,2013-08-05 04:22:00,
2013-08-04 23:52:00,57.0,54.0,-100.00,SE,133,6.0,14.0,90,0.00,,,0.00,,2013-08-05 04:52:00,